createdAt,value
2023-04-22T00:02:17.134Z,20.83
2023-04-22T00:04:46.505Z,15.38
2023-04-22T00:07:14.821Z,17.20
2023-04-22T00:09:42.311Z,15.55
2023-04-22T00:12:11.676Z,15.68
2023-04-22T00:14:38.932Z,19.42
2023-04-22T00:17:07.250Z,18.73
2023-04-22T00:19:34.835Z,17.27
2023-04-22T00:22:01.910Z,14.73
2023-04-22T00:24:28.532Z,15.15
2023-04-22T00:26:55.790Z,14.93
2023-04-22T00:29:22.712Z,14.55
2023-04-22T00:31:49.543Z,15.30
2023-04-22T00:34:18.139Z,17.25
2023-04-22T00:36:44.746Z,12.38
2023-04-22T00:39:12.307Z,15.40
2023-04-22T00:41:39.848Z,17.92
2023-04-22T00:44:10.841Z,18.38
2023-04-22T00:46:39.584Z,17.38
2023-04-22T00:49:07.618Z,18.60
2023-04-22T00:51:34.923Z,17.52
2023-04-22T00:54:02.105Z,17.50
2023-04-22T00:56:30.417Z,15.65
2023-04-22T00:58:57.888Z,15.90
2023-04-22T01:01:24.984Z,17.48
2023-04-22T01:03:52.967Z,21.15
2023-04-22T01:06:22.944Z,18.05
2023-04-22T01:08:49.790Z,18.25
2023-04-22T01:11:16.396Z,17.67
2023-04-22T01:13:43.245Z,20.83
2023-04-22T01:16:10.372Z,15.05
2023-04-22T01:18:37.234Z,18.77
2023-04-22T01:21:03.948Z,14.48
2023-04-22T01:23:30.613Z,15.68
2023-04-22T01:25:57.639Z,15.00
2023-04-22T01:28:24.742Z,17.15
2023-04-22T01:30:52.393Z,21.08
2023-04-22T01:33:19.173Z,18.45
2023-04-22T01:35:46.275Z,17.50
2023-04-22T01:38:13.478Z,16.90
2023-04-22T01:40:40.180Z,19.50
2023-04-22T01:43:06.934Z,18.58
2023-04-22T01:45:33.981Z,21.63
2023-04-22T01:48:00.894Z,24.58
2023-04-22T01:50:27.759Z,21.73
2023-04-22T01:52:54.593Z,23.30
2023-04-22T01:55:21.270Z,21.55
2023-04-22T01:57:48.088Z,18.05
2023-04-22T02:00:14.941Z,21.00
2023-04-22T02:02:42.095Z,18.63
2023-04-22T02:05:09.304Z,17.20
2023-04-22T02:07:36.774Z,18.48
2023-04-22T02:10:05.737Z,18.52
2023-04-22T02:12:32.549Z,21.00
2023-04-22T02:14:59.279Z,12.20
2023-04-22T02:17:26.188Z,10.73
2023-04-22T02:19:52.943Z,21.35
2023-04-22T02:22:19.748Z,13.10
2023-04-22T02:24:46.628Z,15.75
2023-04-22T02:27:13.172Z,13.00
2023-04-22T02:29:40.271Z,16.02
2023-04-22T02:32:07.292Z,12.10
2023-04-22T02:34:33.909Z,12.30
2023-04-22T02:37:00.679Z,11.73
2023-04-22T02:39:27.254Z,10.55
2023-04-22T02:41:54.610Z,14.40
2023-04-22T02:44:21.234Z,14.30
2023-04-22T02:46:48.333Z,19.75
2023-04-22T02:49:14.936Z,14.52
2023-04-22T02:51:41.514Z,14.27
2023-04-22T02:54:08.156Z,19.10
2023-04-22T02:56:34.742Z,22.50
2023-04-22T02:59:01.530Z,25.08
2023-04-22T03:01:28.277Z,17.25
2023-04-22T03:03:56.503Z,13.57
2023-04-22T03:06:23.271Z,21.63
2023-04-22T03:08:50.141Z,15.85
2023-04-22T03:11:16.926Z,15.50
2023-04-22T03:13:43.657Z,18.45
2023-04-22T03:16:10.409Z,14.32
2023-04-22T03:18:37.006Z,17.30
2023-04-22T03:21:04.318Z,15.18
2023-04-22T03:23:31.164Z,14.88
2023-04-22T03:25:57.801Z,15.77
2023-04-22T03:28:24.389Z,18.92
2023-04-22T03:30:51.018Z,15.57
2023-04-22T03:33:18.763Z,16.73
2023-04-22T03:35:49.055Z,17.67
2023-04-22T03:38:16.113Z,15.63
2023-04-22T03:40:43.650Z,17.00
2023-04-22T03:43:10.332Z,24.55
2023-04-22T03:45:37.060Z,17.08
2023-04-22T03:48:04.206Z,20.23
2023-04-22T03:50:30.906Z,21.40
2023-04-22T03:52:57.518Z,17.10
2023-04-22T03:55:24.193Z,18.90
2023-04-22T03:57:50.829Z,21.52
2023-04-22T04:00:17.627Z,20.35
2023-04-22T04:02:44.496Z,15.15
2023-04-22T04:05:11.471Z,12.05
2023-04-22T04:07:38.452Z,17.80
2023-04-22T04:10:05.529Z,19.38
2023-04-22T04:12:32.086Z,23.55
2023-04-22T04:14:58.797Z,22.92
2023-04-22T04:17:26.092Z,21.33
2023-04-22T04:19:54.075Z,10.85
2023-04-22T04:22:21.143Z,16.33
2023-04-22T04:24:47.699Z,14.23
2023-04-22T04:27:14.622Z,15.70
2023-04-22T04:29:42.500Z,17.30
2023-04-22T04:32:10.159Z,23.92
2023-04-22T04:34:37.743Z,11.52
2023-04-22T04:37:04.509Z,6.20
2023-04-22T04:39:31.192Z,13.05
2023-04-22T04:41:58.898Z,12.70
2023-04-22T04:44:31.963Z,18.60
2023-04-22T04:46:58.831Z,15.18
2023-04-22T04:49:25.961Z,9.25
2023-04-22T04:51:52.712Z,12.52
2023-04-22T04:54:19.404Z,12.77
2023-04-22T04:56:46.201Z,13.68
2023-04-22T04:59:12.912Z,16.25
2023-04-22T05:01:39.696Z,15.38
2023-04-22T05:04:06.711Z,8.35
2023-04-22T05:06:33.796Z,9.98
2023-04-22T05:09:00.518Z,8.93
2023-04-22T05:11:27.233Z,7.18
2023-04-22T05:13:53.847Z,15.27
2023-04-22T05:16:20.670Z,6.85
2023-04-22T05:18:47.377Z,5.68
2023-04-22T05:21:14.062Z,11.23
2023-04-22T05:23:40.722Z,10.93
2023-04-22T05:26:07.466Z,9.30
2023-04-22T05:28:34.313Z,10.32
2023-04-22T05:31:01.041Z,5.47
2023-04-22T05:33:27.604Z,4.45
2023-04-22T05:35:54.441Z,6.40
2023-04-22T05:38:21.075Z,9.70
2023-04-22T05:40:47.626Z,5.30
2023-04-22T05:43:15.768Z,4.97
2023-04-22T05:45:42.971Z,5.22
2023-04-22T05:48:09.679Z,6.07
2023-04-22T05:50:36.336Z,9.25
2023-04-22T05:53:02.902Z,12.50
2023-04-22T05:55:29.569Z,10.65
2023-04-22T05:57:56.393Z,6.65
2023-04-22T06:00:22.981Z,7.05
2023-04-22T06:02:49.767Z,7.47
2023-04-22T06:05:16.786Z,7.13
2023-04-22T06:07:44.722Z,7.35
2023-04-22T06:10:11.368Z,7.07
2023-04-22T06:12:38.085Z,9.73
2023-04-22T06:15:05.725Z,7.20
2023-04-22T06:17:32.491Z,6.38
2023-04-22T06:19:59.196Z,8.25
2023-04-22T06:22:25.849Z,8.55
2023-04-22T06:24:52.542Z,10.00
2023-04-22T06:27:19.286Z,6.57
2023-04-22T06:29:46.934Z,6.70
2023-04-22T06:32:13.497Z,8.07
2023-04-22T06:34:40.321Z,6.05
2023-04-22T06:37:06.884Z,6.93
2023-04-22T06:39:33.460Z,5.68
2023-04-22T06:42:01.639Z,7.13
2023-04-22T06:44:29.102Z,4.55
2023-04-22T06:46:57.912Z,7.10
2023-04-22T06:49:25.000Z,5.32
2023-04-22T06:51:51.696Z,4.68
2023-04-22T06:54:18.265Z,4.97
2023-04-22T06:56:45.219Z,3.92
2023-04-22T06:59:11.864Z,4.50
2023-04-22T07:01:38.538Z,5.18
2023-04-22T07:04:05.186Z,7.07
2023-04-22T07:06:31.809Z,4.13
2023-04-22T07:08:58.465Z,3.35
2023-04-22T07:11:25.100Z,3.78
2023-04-22T07:13:51.968Z,6.50
2023-04-22T07:16:19.290Z,5.75
2023-04-22T07:18:45.877Z,4.57
2023-04-22T07:21:12.489Z,3.63
2023-04-22T07:23:39.205Z,5.60
2023-04-22T07:26:06.002Z,8.43
2023-04-22T07:28:32.575Z,7.57
2023-04-22T07:30:59.150Z,5.00
2023-04-22T07:33:25.833Z,5.63
2023-04-22T07:35:52.530Z,7.78
2023-04-22T07:38:19.259Z,5.65
2023-04-22T07:40:45.978Z,5.47
2023-04-22T07:43:12.769Z,4.68
2023-04-22T07:45:39.774Z,3.85
2023-04-22T07:48:06.475Z,3.33
2023-04-22T07:50:33.142Z,2.97
2023-04-22T07:53:00.714Z,2.63
2023-04-22T07:55:27.440Z,3.17
2023-04-22T07:57:54.059Z,4.97
2023-04-22T08:00:20.696Z,3.55
2023-04-22T08:02:47.683Z,6.90
2023-04-22T08:05:14.561Z,4.03
2023-04-22T08:07:41.319Z,4.43
2023-04-22T08:10:08.564Z,2.45
2023-04-22T08:12:35.397Z,1.83
2023-04-22T08:15:02.403Z,1.38
2023-04-22T08:17:29.195Z,2.05
2023-04-22T08:19:55.825Z,2.90
2023-04-22T08:22:23.912Z,2.28
2023-04-22T08:24:50.491Z,4.38
2023-04-22T08:27:17.182Z,2.45
2023-04-22T08:29:44.095Z,1.92
2023-04-22T08:32:11.171Z,3.25
2023-04-22T08:34:38.989Z,3.88
2023-04-22T08:37:05.691Z,2.00
2023-04-22T08:39:32.332Z,2.92
2023-04-22T08:41:59.147Z,3.22
2023-04-22T08:44:26.007Z,6.88
2023-04-22T08:46:53.687Z,6.28
2023-04-22T08:49:20.429Z,9.75
2023-04-22T08:51:46.976Z,3.88
2023-04-22T08:54:13.637Z,10.70
2023-04-22T08:56:45.501Z,2.75
2023-04-22T08:59:13.268Z,1.88
2023-04-22T09:01:43.617Z,2.58
2023-04-22T09:04:11.772Z,5.75
2023-04-22T09:06:39.300Z,3.42
2023-04-22T09:09:06.441Z,3.70
2023-04-22T09:11:33.896Z,4.32
2023-04-22T09:14:00.570Z,3.63
2023-04-22T09:16:29.783Z,3.35
2023-04-22T09:18:56.907Z,4.45
2023-04-22T09:21:32.129Z,3.95
2023-04-22T09:24:02.512Z,5.22
2023-04-22T09:26:29.090Z,11.27
2023-04-22T09:28:58.756Z,4.65
2023-04-22T09:31:26.150Z,3.92
2023-04-22T09:33:55.858Z,1.95
2023-04-22T09:36:29.731Z,1.48
2023-04-22T09:38:59.623Z,4.72
2023-04-22T09:41:30.247Z,3.75
2023-04-22T09:43:58.403Z,2.10
2023-04-22T09:46:27.202Z,2.13
2023-04-22T09:48:58.697Z,1.88
2023-04-22T09:51:27.433Z,1.38
2023-04-22T09:54:06.507Z,1.40
2023-04-22T09:56:53.903Z,3.45
2023-04-22T09:59:28.725Z,1.35
2023-04-22T10:01:58.251Z,3.45
2023-04-22T10:04:25.987Z,2.67
2023-04-22T10:06:54.087Z,1.63
2023-04-22T10:09:23.602Z,1.25
2023-04-22T10:11:52.791Z,0.55
2023-04-22T10:14:22.522Z,1.90
2023-04-22T10:16:52.139Z,4.03
2023-04-22T10:19:22.424Z,1.33
2023-04-22T10:21:52.916Z,0.25
2023-04-22T10:24:20.123Z,0.50
2023-04-22T10:26:57.950Z,1.30
2023-04-22T10:29:26.846Z,0.50
2023-04-22T10:32:10.983Z,0.90
2023-04-22T10:34:41.046Z,0.80
2023-04-22T10:37:09.811Z,0.60
2023-04-22T10:39:36.615Z,2.15
2023-04-22T10:42:03.091Z,0.57
2023-04-22T10:44:44.581Z,0.30
2023-04-22T10:47:11.183Z,0.57
2023-04-22T10:49:38.195Z,0.50
2023-04-22T10:52:06.864Z,2.70
2023-04-22T10:54:39.186Z,1.20
2023-04-22T10:57:08.925Z,1.55
2023-04-22T10:59:57.722Z,0.47
2023-04-22T11:02:24.923Z,0.85
2023-04-22T11:04:55.009Z,0.70
2023-04-22T11:07:27.495Z,0.68
2023-04-22T11:10:05.679Z,0.30
2023-04-22T11:12:34.968Z,1.08
2023-04-22T11:15:05.397Z,0.40
2023-04-22T11:17:32.460Z,0.30
2023-04-22T11:19:59.579Z,0.50
2023-04-22T11:22:26.631Z,1.13
2023-04-22T11:24:57.513Z,0.20
2023-04-22T11:27:29.119Z,1.23
2023-04-22T11:30:16.585Z,0.95
2023-04-22T11:32:45.847Z,0.63
2023-04-22T11:35:19.287Z,1.00
2023-04-22T11:37:52.756Z,0.35
2023-04-22T11:40:30.618Z,0.40
2023-04-22T11:42:59.217Z,1.08
2023-04-22T11:45:26.574Z,1.45
2023-04-22T11:47:53.821Z,0.60
2023-04-22T11:50:28.875Z,2.08
2023-04-22T11:53:01.253Z,5.03
2023-04-22T11:55:30.863Z,0.63
2023-04-22T11:58:01.402Z,2.22
2023-04-22T12:00:33.514Z,1.95
2023-04-22T12:03:02.623Z,1.02
2023-04-22T12:05:40.343Z,0.40
2023-04-22T12:08:09.734Z,1.52
2023-04-22T12:10:44.102Z,2.80
2023-04-22T12:13:19.315Z,1.85
2023-04-22T12:15:46.027Z,1.20
2023-04-22T12:18:12.930Z,0.60
2023-04-22T12:20:41.589Z,0.93
2023-04-22T12:23:15.647Z,3.15
2023-04-22T12:25:43.420Z,0.65
2023-04-22T12:28:11.236Z,3.15
2023-04-22T12:30:37.945Z,2.95
2023-04-22T12:33:04.516Z,0.22
2023-04-22T12:35:31.181Z,0.98
2023-04-22T12:37:58.351Z,1.98
2023-04-22T12:40:24.940Z,0.95
2023-04-22T12:42:51.562Z,0.55
2023-04-22T12:45:18.400Z,0.32
2023-04-22T12:47:46.038Z,0.35
2023-04-22T12:50:12.872Z,1.10
2023-04-22T12:52:39.504Z,0.50
2023-04-22T12:55:06.592Z,0.40
2023-04-22T12:57:33.204Z,0.20
2023-04-22T13:00:00.217Z,0.38
2023-04-22T13:02:27.176Z,0.65
2023-04-22T13:04:55.055Z,0.30
2023-04-22T13:07:21.834Z,0.82
2023-04-22T13:09:48.792Z,1.80
2023-04-22T13:12:15.441Z,1.15
2023-04-22T13:14:42.179Z,0.65
2023-04-22T13:17:08.929Z,0.73
2023-04-22T13:19:35.820Z,0.50
2023-04-22T13:22:02.778Z,0.70
2023-04-22T13:24:29.555Z,0.85
2023-04-22T13:26:57.355Z,1.35
2023-04-22T13:29:24.057Z,0.40
2023-04-22T13:31:50.738Z,0.60
2023-04-22T13:34:17.757Z,1.10
2023-04-22T13:36:44.494Z,0.32
2023-04-22T13:39:11.935Z,0.70
2023-04-22T13:41:38.604Z,0.73
2023-04-22T13:44:05.440Z,0.80
2023-04-22T13:46:32.186Z,0.70
2023-04-22T13:48:58.974Z,0.88
2023-04-22T13:51:26.003Z,1.80
2023-04-22T13:53:52.816Z,0.30
2023-04-22T13:56:19.476Z,0.75
2023-04-22T13:58:46.961Z,0.25
2023-04-22T14:01:13.603Z,0.40
2023-04-22T14:03:40.691Z,0.98
2023-04-22T14:06:07.878Z,1.45
2023-04-22T14:08:34.572Z,0.95
2023-04-22T14:11:04.363Z,1.77
2023-04-22T14:13:31.570Z,0.82
2023-04-22T14:15:58.241Z,0.45
2023-04-22T14:18:25.880Z,0.68
2023-04-22T14:20:54.701Z,1.58
2023-04-22T14:23:21.522Z,0.30
2023-04-22T14:25:48.858Z,2.17
2023-04-22T14:28:16.612Z,1.80
2023-04-22T14:30:43.853Z,0.30
2023-04-22T14:33:10.663Z,0.88
2023-04-22T14:35:38.139Z,0.30
2023-04-22T14:38:06.767Z,0.75
2023-04-22T14:40:33.493Z,0.22
2023-04-22T14:43:02.857Z,0.50
2023-04-22T14:45:30.837Z,0.30
2023-04-22T14:47:58.414Z,2.25
2023-04-22T14:50:25.870Z,1.33
2023-04-22T14:52:53.542Z,0.60
2023-04-22T14:55:23.598Z,0.70
2023-04-22T14:57:52.443Z,0.40
2023-04-22T15:00:19.323Z,0.40
2023-04-22T15:02:46.477Z,2.05
2023-04-22T15:05:13.451Z,2.40
2023-04-22T15:07:40.016Z,1.13
2023-04-22T15:10:07.124Z,0.40
2023-04-22T15:12:33.797Z,1.55
2023-04-22T15:15:00.483Z,0.40
2023-04-22T15:17:27.527Z,0.75
2023-04-22T15:19:57.670Z,0.82
2023-04-22T15:22:25.178Z,0.40
2023-04-22T15:24:52.148Z,1.95
2023-04-22T15:27:19.082Z,1.20
2023-04-22T15:29:46.599Z,0.93
2023-04-22T15:32:13.261Z,0.30
2023-04-22T15:34:39.933Z,0.68
2023-04-22T15:37:06.579Z,1.48
2023-04-22T15:39:33.324Z,0.30
2023-04-22T15:41:59.924Z,0.40
2023-04-22T15:44:28.070Z,1.85
2023-04-22T15:46:55.204Z,3.22
2023-04-22T15:49:21.957Z,3.35
2023-04-22T15:51:48.534Z,1.63
2023-04-22T15:54:15.208Z,1.17
2023-04-22T15:56:41.838Z,1.48
2023-04-22T15:59:08.509Z,0.63
2023-04-22T16:01:35.335Z,2.35
2023-04-22T16:04:02.190Z,0.50
2023-04-22T16:06:29.053Z,1.23
2023-04-22T16:08:55.708Z,0.40
2023-04-22T16:11:22.383Z,2.30
2023-04-22T16:13:49.167Z,2.30
2023-04-22T16:16:16.612Z,2.08
2023-04-22T16:18:44.320Z,1.70
2023-04-22T16:21:11.097Z,0.63
2023-04-22T16:23:38.067Z,1.23
2023-04-22T16:26:05.886Z,1.73
2023-04-22T16:28:32.964Z,1.85
2023-04-22T16:31:00.181Z,0.82
2023-04-22T16:33:27.098Z,0.40
2023-04-22T16:35:53.793Z,2.83
2023-04-22T16:38:20.420Z,1.75
2023-04-22T16:40:47.160Z,1.05
2023-04-22T16:43:13.833Z,0.63
2023-04-22T16:45:40.713Z,0.85
2023-04-22T16:48:07.466Z,1.50
2023-04-22T16:50:34.121Z,1.25
2023-04-22T16:53:00.785Z,1.00
2023-04-22T16:55:27.423Z,0.40
2023-04-22T16:57:54.835Z,0.50
2023-04-22T17:00:24.057Z,1.00
2023-04-22T17:02:50.934Z,0.90
2023-04-22T17:05:17.692Z,0.70
2023-04-22T17:07:44.734Z,1.77
2023-04-22T17:10:11.467Z,1.17
2023-04-22T17:12:38.507Z,0.88
2023-04-22T17:15:06.639Z,0.73
2023-04-22T17:17:33.281Z,1.55
2023-04-22T17:20:00.572Z,1.65
2023-04-22T17:22:27.381Z,1.40
2023-04-22T17:24:54.256Z,0.88
2023-04-22T17:27:20.910Z,1.67
2023-04-22T17:29:47.583Z,0.70
2023-04-22T17:32:14.290Z,1.45
2023-04-22T17:34:41.283Z,2.78
2023-04-22T17:37:08.180Z,1.30
2023-04-22T17:39:34.736Z,1.48
2023-04-22T17:42:02.370Z,1.05
2023-04-22T17:44:29.049Z,1.88
2023-04-22T17:46:55.830Z,3.22
2023-04-22T17:49:22.587Z,3.63
2023-04-22T17:51:49.737Z,1.15
2023-04-22T17:54:16.638Z,0.77
2023-04-22T17:56:43.592Z,0.60
2023-04-22T17:59:11.461Z,1.38
2023-04-22T18:01:39.098Z,1.75
2023-04-22T18:04:06.401Z,2.72
2023-04-22T18:06:33.274Z,1.20
2023-04-22T18:09:00.019Z,1.08
2023-04-22T18:11:27.933Z,1.70
2023-04-22T18:13:55.357Z,2.75
2023-04-22T18:16:22.106Z,2.10
2023-04-22T18:18:48.829Z,0.90
2023-04-22T18:21:15.549Z,2.25
2023-04-22T18:23:42.690Z,2.40
2023-04-22T18:26:12.272Z,1.25
2023-04-22T18:28:41.202Z,0.90
2023-04-22T18:31:08.495Z,1.38
2023-04-22T18:33:36.055Z,1.92
2023-04-22T18:36:02.813Z,3.65
2023-04-22T18:38:29.447Z,1.17
2023-04-22T18:40:56.269Z,4.05
2023-04-22T18:43:23.105Z,1.30
2023-04-22T18:45:50.018Z,0.90
2023-04-22T18:48:18.693Z,1.95
2023-04-22T18:50:45.700Z,1.05
2023-04-22T18:53:12.339Z,1.02
2023-04-22T18:55:38.997Z,1.92
2023-04-22T18:58:05.844Z,1.42
2023-04-22T19:00:32.749Z,5.45
2023-04-22T19:02:59.578Z,2.70
2023-04-22T19:05:26.345Z,1.55
2023-04-22T19:07:52.895Z,5.57
2023-04-22T19:10:19.868Z,2.38
2023-04-22T19:12:46.675Z,1.63
2023-04-22T19:15:13.363Z,1.67
2023-04-22T19:17:40.686Z,2.90
2023-04-22T19:20:08.452Z,4.00
2023-04-22T19:22:35.716Z,1.50
2023-04-22T19:25:02.652Z,2.35
2023-04-22T19:27:29.689Z,1.65
2023-04-22T19:29:56.324Z,1.52
2023-04-22T19:32:23.155Z,3.25
2023-04-22T19:34:50.123Z,1.65
2023-04-22T19:37:17.261Z,3.03
2023-04-22T19:39:44.406Z,1.67
2023-04-22T19:42:11.694Z,1.33
2023-04-22T19:44:40.582Z,2.05
2023-04-22T19:47:07.848Z,1.60
2023-04-22T19:49:34.791Z,0.82
2023-04-22T19:52:02.798Z,3.20
2023-04-22T19:54:29.746Z,1.08
2023-04-22T19:56:58.707Z,1.00
2023-04-22T19:59:28.069Z,0.60
2023-04-22T20:01:54.975Z,0.50
2023-04-22T20:04:22.145Z,1.90
2023-04-22T20:06:51.511Z,0.52
2023-04-22T20:09:19.288Z,0.70
2023-04-22T20:11:47.690Z,0.70
2023-04-22T20:14:15.018Z,1.70
2023-04-22T20:16:42.418Z,0.60
2023-04-22T20:19:09.829Z,2.22
2023-04-22T20:21:36.975Z,1.73
2023-04-22T20:24:04.566Z,1.15
2023-04-22T20:26:33.041Z,1.95
2023-04-22T20:29:00.841Z,2.13
2023-04-22T20:31:27.831Z,1.48
2023-04-22T20:33:54.600Z,3.45
2023-04-22T20:36:22.805Z,1.80
2023-04-22T20:38:51.011Z,2.42
2023-04-22T20:41:20.924Z,2.10
2023-04-22T20:43:47.670Z,1.10
2023-04-22T20:46:14.398Z,0.73
2023-04-22T20:48:41.333Z,1.15
2023-04-22T20:51:08.129Z,0.77
2023-04-22T20:53:35.522Z,1.48
2023-04-22T20:56:02.763Z,0.70
2023-04-22T20:58:29.547Z,2.33
2023-04-22T21:00:56.256Z,0.60
2023-04-22T21:03:25.569Z,1.00
2023-04-22T21:05:52.950Z,1.13
2023-04-22T21:08:24.793Z,0.70
2023-04-22T21:10:54.295Z,0.70
2023-04-22T21:13:21.774Z,1.90
2023-04-22T21:16:04.998Z,2.72
2023-04-22T21:18:33.206Z,1.77
2023-04-22T21:21:02.673Z,1.83
2023-04-22T21:23:30.923Z,1.42
2023-04-22T21:26:01.696Z,2.78
2023-04-22T21:28:29.189Z,0.90
2023-04-22T21:30:56.344Z,3.00
2023-04-22T21:33:25.276Z,1.00
2023-04-22T21:35:52.293Z,1.85
2023-04-22T21:38:20.070Z,1.67
2023-04-22T21:40:50.358Z,1.60
2023-04-22T21:43:17.224Z,2.05
2023-04-22T21:45:43.847Z,1.88
2023-04-22T21:48:10.607Z,2.15
2023-04-22T21:50:37.299Z,1.33
2023-04-22T21:53:03.981Z,1.45
2023-04-22T21:55:30.736Z,1.85
2023-04-22T21:57:57.368Z,1.08
2023-04-22T22:00:25.072Z,4.05
2023-04-22T22:02:53.399Z,1.08
2023-04-22T22:05:20.405Z,3.85
2023-04-22T22:07:47.280Z,0.90
2023-04-22T22:10:16.456Z,3.08
2023-04-22T22:12:43.122Z,4.43
2023-04-22T22:15:10.719Z,2.80
2023-04-22T22:17:38.637Z,3.28
2023-04-22T22:20:09.776Z,3.17
2023-04-22T22:22:36.716Z,1.50
2023-04-22T22:25:03.927Z,1.77
2023-04-22T22:27:31.088Z,1.17
2023-04-22T22:29:58.078Z,0.93
2023-04-22T22:32:24.793Z,2.63
2023-04-22T22:34:51.491Z,1.08
2023-04-22T22:37:18.086Z,1.30
2023-04-22T22:39:44.761Z,1.85
2023-04-22T22:42:11.825Z,2.15
2023-04-22T22:44:39.614Z,1.60
2023-04-22T22:47:06.347Z,3.60
2023-04-22T22:49:33.284Z,3.22
2023-04-22T22:52:01.607Z,1.02
2023-04-22T22:54:28.641Z,1.60
2023-04-22T22:56:56.511Z,3.13
2023-04-22T22:59:23.219Z,6.18
2023-04-22T23:01:50.487Z,2.88
2023-04-22T23:04:17.546Z,1.50
2023-04-22T23:06:44.878Z,1.88
2023-04-22T23:09:11.565Z,1.98
2023-04-22T23:11:38.529Z,4.35
2023-04-22T23:14:05.431Z,3.42
2023-04-22T23:16:32.180Z,7.88
2023-04-22T23:18:59.576Z,6.55
2023-04-22T23:21:26.676Z,2.30
2023-04-22T23:23:54.413Z,2.92
2023-04-22T23:26:21.339Z,5.47
2023-04-22T23:28:48.452Z,5.88
2023-04-22T23:31:18.326Z,5.35
2023-04-22T23:33:45.584Z,5.57
2023-04-22T23:36:14.400Z,3.38
2023-04-22T23:38:40.992Z,3.70
2023-04-22T23:41:07.626Z,4.28
2023-04-22T23:43:34.177Z,7.47
2023-04-22T23:46:00.802Z,4.93
2023-04-22T23:48:27.499Z,5.05
2023-04-22T23:50:54.132Z,4.43
2023-04-22T23:53:20.818Z,6.90
2023-04-22T23:55:48.002Z,5.00
2023-04-22T23:58:15.022Z,5.70
